Bei Facebook empfehlenBei Twitter postenGoogle plusPinterest

Das Wetter im Erzgebirge am 23.12.2015

Wetter und Klima am 23.12.2015 Holzhau im Erzgebirge (630m ü.NN)
Letzte gemessene Temperatur und Uhrzeit der Messung23:45:00 Uhr1.10 °C
Temperatur (Maximum / Höchstwert) und Uhrzeit der Messung11:30:00 Uhr10.50 °C
Temperatur (Minimum / Tiefstwert) und Uhrzeit der Messung22:45:000.90 °C
Errechneter Absolutwert der Temperaturschwankungen zwischen Tmin und Tmax des Tages9.60 K
Errechnete Tagesmitteltemperatur6.14063 °C
Gesamt - Niederschlag des Tages (in flüssiger Form)0.00 Liter / m²
Luftdruck (Maximum / Höchstwert) und Zeitpunkt der Messung23:45:00 Uhr1024.90 hPa
Luftdruck (Minimum / Tiefstwert) und Zeitpunkt der Messung05:00:00 Uhr1018.40 hPa
Errechneter Absolutwert der Luftdruckschwankungen des Tages6.50 hPa
Höchste gemessene Windgeschwindigkeit und Uhrzeit der Messung15:15:00 Uhr16.20 km/h
Errechnete Windhäufigkeit in Relation zu den Messwerten des Tages32.29167 %
Niedrigste Windkühle (Windchill) und Zeitpunkt der Messung22:45:00 Uhr0.90 °C
Taupunkt (Maximum / Höchstwert) und Uhrzeit der Messung11:30:00 Uhr7.00 °C
Taupunkt (Minimum / Tiefstwert) und Uhrzeit der Messung22:45:00-0.20 °C
Anzahl der automatisch eingelesenen Messwerte 96

Detaillierte Wetter- und Klima- Messwerte für den 23.12.2015 in Holzhau im Erzgebirge (630m ü.NN)
ZeitTemperaturLuftdruckRel. LuftfeuchteWindWindrichtungWindchillTaupunktNiederschlag l/m²
23:45:001.10 °C1024.90 hPa93.00 %0.10 °C 
23:30:001.30 °C1024.80 hPa93.00 %0.30 °C 
23:15:001.30 °C1024.80 hPa93.00 %0.30 °C 
23:00:001.10 °C1024.70 hPa93.00 %0.10 °C 
22:45:000.90 °C1024.60 hPa92.00 %-0.20 °C 
22:30:001.00 °C1024.60 hPa92.00 %-0.10 °C 
22:15:001.30 °C1024.70 hPa92.00 %0.10 °C 
22:00:001.30 °C1024.60 hPa92.00 %0.10 °C 
21:45:001.50 °C1024.70 hPa92.00 %0.30 °C 
21:30:001.60 °C1024.40 hPa92.00 %0.40 °C 
21:15:001.90 °C1024.60 hPa92.00 %2.16 km/hOSO1.90 °C0.70 °C 
21:00:002.10 °C1024.40 hPa91.00 %0.80 °C 
20:45:002.60 °C1024.20 hPa91.00 %1.30 °C 
20:30:002.90 °C1024.30 hPa91.00 %2.88 km/hOSO2.90 °C1.60 °C 
20:15:003.10 °C1024.10 hPa91.00 %1.80 °C 
20:00:003.70 °C1024.00 hPa91.00 %2.40 °C 
19:45:004.30 °C1024.20 hPa91.00 %3.00 °C 
19:30:004.50 °C1024.10 hPa91.00 %3.20 °C 
19:15:004.80 °C1024.30 hPa90.00 %3.30 °C 
19:00:005.30 °C1024.20 hPa91.00 %4.00 °C 
18:45:005.30 °C1024.00 hPa91.00 %4.00 °C 
18:30:005.30 °C1024.00 hPa90.00 %2.52 km/hSW5.30 °C3.80 °C 
18:15:005.90 °C1023.90 hPa90.00 %4.40 °C 
18:00:006.10 °C1023.70 hPa90.00 %11.88 km/hSW3.60 °C4.60 °C 
17:45:006.30 °C1023.60 hPa89.00 %4.60 °C 
17:30:006.30 °C1023.30 hPa89.00 %4.60 °C 
17:15:006.50 °C1023.00 hPa89.00 %5.76 km/hW5.50 °C4.80 °C 
17:00:006.50 °C1022.90 hPa89.00 %4.32 km/hWNW6.50 °C4.80 °C 
16:45:006.90 °C1022.80 hPa89.00 %5.20 °C 
16:30:007.10 °C1022.50 hPa88.00 %4.32 km/hSSW7.10 °C5.30 °C 
16:15:007.20 °C1022.40 hPa88.00 %3.24 km/hSSW7.20 °C5.30 °C 
16:00:007.60 °C1022.10 hPa88.00 %5.70 °C 
15:45:007.90 °C1022.10 hPa88.00 %6.00 °C 
15:30:007.90 °C1022.10 hPa88.00 %7.56 km/hWSW6.60 °C6.00 °C 
15:15:008.10 °C1021.90 hPa87.00 %16.20 km/hSW5.40 °C6.10 °C 
15:00:008.20 °C1021.90 hPa87.00 %6.84 km/hWSW7.20 °C6.20 °C 
14:45:008.30 °C1021.50 hPa86.00 %6.10 °C 
14:30:008.30 °C1021.40 hPa86.00 %3.24 km/hW8.30 °C6.10 °C 
14:15:008.40 °C1021.30 hPa86.00 %2.52 km/hW8.40 °C6.20 °C 
14:00:008.50 °C1021.20 hPa85.00 %3.96 km/hWNW8.50 °C6.10 °C 
13:45:008.60 °C1021.00 hPa85.00 %4.68 km/hW8.60 °C6.20 °C 
13:30:008.80 °C1020.90 hPa85.00 %6.40 °C 
13:15:008.90 °C1021.10 hPa84.00 %6.30 °C 
13:00:009.10 °C1021.00 hPa84.00 %6.50 °C 
12:45:009.10 °C1021.00 hPa83.00 %10.44 km/hWSW7.50 °C6.40 °C 
12:30:009.40 °C1021.00 hPa83.00 %4.32 km/hW9.40 °C6.70 °C 
12:15:009.50 °C1020.70 hPa81.00 %2.52 km/hW9.50 °C6.40 °C 
12:00:009.90 °C1020.80 hPa80.00 %3.60 km/hNW9.90 °C6.60 °C 
11:45:0010.40 °C1020.60 hPa79.00 %3.60 km/hNW10.40 °C6.90 °C 
11:30:0010.50 °C1020.50 hPa79.00 %1.80 km/hNW10.50 °C7.00 °C 
11:15:0010.20 °C1020.50 hPa77.00 %6.40 °C 
11:00:0010.30 °C1020.40 hPa76.00 %6.30 °C 
10:45:0010.20 °C1020.40 hPa76.00 %2.88 km/hWNW10.20 °C6.20 °C 
10:30:009.60 °C1020.20 hPa77.00 %5.80 °C 
10:15:009.30 °C1019.90 hPa77.00 %5.50 °C 
10:00:008.80 °C1020.00 hPa79.00 %5.40 °C 
09:45:007.60 °C1020.00 hPa80.00 %4.40 °C 
09:30:006.70 °C1019.70 hPa81.00 %3.70 °C 
09:15:006.10 °C1019.60 hPa81.00 %3.10 °C 
09:00:005.60 °C1019.50 hPa81.00 %2.60 °C 
08:45:004.60 °C1019.50 hPa81.00 %7.56 km/hSSW2.80 °C1.60 °C 
08:30:004.10 °C1019.40 hPa80.00 %1.00 °C 
08:15:003.90 °C1019.40 hPa79.00 %0.60 °C 
08:00:003.90 °C1019.30 hPa79.00 %0.60 °C 
07:45:004.10 °C1019.30 hPa79.00 %0.80 °C 
07:30:004.20 °C1019.10 hPa78.00 %0.70 °C 
07:15:004.00 °C1019.00 hPa78.00 %0.50 °C 
07:00:004.40 °C1018.80 hPa77.00 %0.70 °C 
06:45:005.30 °C1018.70 hPa78.00 %1.80 °C 
06:30:005.90 °C1018.70 hPa79.00 %2.50 °C 
06:15:006.30 °C1018.60 hPa81.00 %3.30 °C 
06:00:005.80 °C1018.60 hPa85.00 %9.36 km/hSW3.80 °C3.50 °C 
05:45:003.90 °C1018.50 hPa87.00 %1.90 °C 
05:30:003.90 °C1018.60 hPa87.00 %1.90 °C 
05:15:004.40 °C1018.50 hPa88.00 %2.60 °C 
05:00:004.80 °C1018.40 hPa88.00 %3.00 °C 
04:45:004.90 °C1018.40 hPa88.00 %3.10 °C 
04:30:005.10 °C1018.40 hPa88.00 %3.30 °C 
04:15:005.20 °C1018.60 hPa87.00 %3.20 °C 
04:00:005.40 °C1018.60 hPa86.00 %3.30 °C 
03:45:005.80 °C1018.40 hPa85.00 %3.50 °C 
03:30:006.40 °C1018.40 hPa85.00 %4.10 °C 
03:15:006.80 °C1018.70 hPa85.00 %4.50 °C 
03:00:007.10 °C1018.80 hPa85.00 %4.80 °C 
02:45:007.30 °C1018.90 hPa85.00 %5.00 °C 
02:30:007.60 °C1019.10 hPa84.00 %5.10 °C 
02:15:008.00 °C1018.90 hPa84.00 %2.16 km/hWNW8.00 °C5.50 °C 
02:00:008.60 °C1018.90 hPa84.00 %6.10 °C 
01:45:008.90 °C1019.00 hPa85.00 %7.56 km/hWSW7.80 °C6.50 °C 
01:30:008.90 °C1019.00 hPa86.00 %11.52 km/hWSW7.10 °C6.70 °C 
01:15:008.40 °C1019.10 hPa86.00 %14.40 km/hWSW6.00 °C6.20 °C 
01:00:008.10 °C1019.50 hPa86.00 %2.88 km/hSW8.10 °C5.90 °C 
00:45:008.10 °C1019.40 hPa85.00 %5.70 °C 
00:30:008.60 °C1019.50 hPa85.00 %6.20 °C 
00:15:008.90 °C1019.30 hPa85.00 %9.36 km/hWNW7.40 °C6.50 °C 
00:00:009.10 °C1019.30 hPa86.00 %10.08 km/hSW7.50 °C6.90 °C 

Permanenter Link zu dieser Seite: Wetter im Erzgebirge am 23.12.2015
Performance-Info: Die Erstellung der Seite / Statistik(en) / Tabelle(n) erforderte 5 Datenbankserver-Abfrage(n) und dauerte 100 Millisekunden. (Dieser Messwert ist von der Gesamt-Auslastung des Servers abhängig.)
Erzgebirge - Wetter | Erzgebirge - Wetter (Mobilgeräte) | Komplette Klimadatenbank